Time;durP1;ratioP1;P1;durP2;ratioP2;P2;SDS_P1;SDS_P2;PMS_P1;PMS_P2;Temp;Humidity;BMP_temperature;BMP_pressure;BME280_temperature;BME280_humidity;BME280_pressure;Samples;Min_cycle;Max_cycle;Signal;HPM_P1;HPM_P2
2022/09/12 00:00:35;;;;;;;10.50;8.13;;;18.00;81.80;;;;;;5089302;28;20460;-66
2022/09/12 00:03:02;;;;;;;9.50;8.30;;;18.00;82.00;;;;;;5089564;28;20487;-67
2022/09/12 00:05:29;;;;;;;9.50;8.50;;;17.90;82.00;;;;;;5089122;28;20481;-67
2022/09/12 00:07:56;;;;;;;12.13;8.63;;;17.90;82.00;;;;;;5089445;28;20459;-67
2022/09/12 00:10:25;;;;;;;14.63;9.23;;;17.90;82.20;;;;;;5088997;28;20445;-66
2022/09/12 00:12:52;;;;;;;11.23;9.73;;;17.90;82.10;;;;;;5089033;28;20543;-67
2022/09/12 00:15:18;;;;;;;10.37;9.37;;;17.90;82.30;;;;;;5088134;28;20448;-67
2022/09/12 00:17:45;;;;;;;12.17;9.03;;;17.90;82.40;;;;;;5089671;28;20448;-67
2022/09/12 00:20:12;;;;;;;10.90;9.90;;;17.80;82.50;;;;;;5089032;28;20449;-68
2022/09/12 00:22:38;;;;;;;14.17;9.40;;;17.80;82.70;;;;;;5088339;28;20472;-66
2022/09/12 00:25:06;;;;;;;10.67;9.63;;;17.80;82.80;;;;;;5088462;28;20491;-66
2022/09/12 00:27:34;;;;;;;12.37;9.20;;;17.80;82.90;;;;;;5088100;28;20441;-68
2022/09/12 00:30:01;;;;;;;10.80;9.73;;;17.80;82.90;;;;;;5088625;28;21018;-66
2022/09/12 00:32:28;;;;;;;11.43;10.33;;;17.70;83.00;;;;;;5089065;28;20468;-66
2022/09/12 00:34:55;;;;;;;12.33;10.53;;;17.70;82.90;;;;;;5088916;28;20447;-66
2022/09/12 00:37:21;;;;;;;11.77;9.37;;;17.70;82.90;;;;;;5088606;28;20531;-67
2022/09/12 00:39:48;;;;;;;11.03;9.50;;;17.60;83.00;;;;;;5088862;28;20449;-67
2022/09/12 00:42:15;;;;;;;10.83;9.70;;;17.60;83.10;;;;;;5088145;28;20448;-66
2022/09/12 00:44:47;;;;;;;11.87;10.67;;;17.60;83.20;;;;;;5088382;28;20507;-66
2022/09/12 00:47:19;;;;;;;13.63;10.10;;;17.60;83.30;;;;;;5088022;28;20440;-66
2022/09/12 00:49:49;;;;;;;11.00;9.90;;;17.50;83.40;;;;;;5088574;28;20440;-66
2022/09/12 00:52:20;;;;;;;17.37;12.30;;;17.50;83.60;;;;;;5088125;28;20448;-66
2022/09/12 00:54:52;;;;;;;15.73;14.03;;;17.50;83.80;;;;;;5087875;28;20445;-66
2022/09/12 00:57:23;;;;;;;13.30;11.80;;;17.50;84.20;;;;;;5087907;28;20441;-66
2022/09/12 00:59:55;;;;;;;17.13;12.07;;;17.50;84.70;;;;;;5090767;28;20432;-66
2022/09/12 01:02:23;;;;;;;18.80;15.60;;;17.50;85.30;;;;;;5091938;28;20468;-66
2022/09/12 01:04:50;;;;;;;19.00;14.50;;;17.50;85.80;;;;;;5091567;28;20481;-66
2022/09/12 01:07:17;;;;;;;19.37;14.50;;;17.50;86.10;;;;;;5091619;28;20475;-66
2022/09/12 01:09:45;;;;;;;16.50;14.80;;;17.50;86.20;;;;;;5090353;28;20449;-66
2022/09/12 01:12:14;;;;;;;22.57;16.33;;;17.50;86.70;;;;;;5090165;28;20512;-67
2022/09/12 01:14:41;;;;;;;16.60;14.47;;;17.50;87.00;;;;;;5091003;28;20444;-67
2022/09/12 01:17:12;;;;;;;16.13;13.60;;;17.50;87.00;;;;;;5090657;28;20451;-66
2022/09/12 01:20:08;;;;;;;11.23;9.67;;;17.50;86.90;;;;;;5090139;28;20433;-66
2022/09/12 01:22:58;;;;;;;10.50;9.43;;;17.50;86.70;;;;;;5090752;28;20472;-66
2022/09/12 01:25:30;;;;;;;10.30;9.20;;;17.40;86.10;;;;;;5090725;28;20472;-66
2022/09/12 01:28:17;;;;;;;11.10;9.70;;;17.40;86.70;;;;;;5090561;28;20437;-66
2022/09/12 01:30:50;;;;;;;12.23;10.47;;;17.40;86.00;;;;;;5091080;28;20449;-66
2022/09/12 01:33:37;;;;;;;16.70;12.03;;;17.40;86.00;;;;;;5090927;28;20483;-66
2022/09/12 01:36:24;;;;;;;17.03;13.60;;;17.30;85.80;;;;;;5091528;28;20435;-66
2022/09/12 01:38:58;;;;;;;13.80;11.00;;;17.30;86.10;;;;;;5091269;28;20904;-66
2022/09/12 01:41:28;;;;;;;14.03;12.53;;;17.20;86.20;;;;;;5090566;28;20444;-66
2022/09/12 01:44:02;;;;;;;14.47;12.40;;;17.20;86.30;;;;;;5090819;28;20468;-66
2022/09/12 01:46:34;;;;;;;15.27;10.60;;;17.20;86.30;;;;;;5090888;28;20435;-66
2022/09/12 01:49:07;;;;;;;11.30;10.17;;;17.10;86.20;;;;;;5091557;28;20441;-66
2022/09/12 01:51:39;;;;;;;11.87;10.63;;;17.10;86.30;;;;;;5091069;28;20798;-66
2022/09/12 01:54:09;;;;;;;15.07;11.50;;;17.10;86.40;;;;;;5089640;28;20497;-66
2022/09/12 01:56:39;;;;;;;13.40;10.20;;;17.10;86.30;;;;;;5089564;28;20444;-66
2022/09/12 01:59:12;;;;;;;15.43;11.47;;;17.00;86.10;;;;;;5089712;28;20448;-66
2022/09/12 02:01:46;;;;;;;12.17;10.80;;;17.00;86.10;;;;;;5090695;28;20444;-67
2022/09/12 02:04:17;;;;;;;16.40;12.00;;;17.00;86.00;;;;;;5091300;28;20467;-67
2022/09/12 02:06:49;;;;;;;15.00;13.27;;;16.90;86.00;;;;;;5091832;28;20496;-67
2022/09/12 02:09:21;;;;;;;14.10;11.10;;;16.90;86.00;;;;;;5092586;28;20456;-66
2022/09/12 02:11:54;;;;;;;14.07;12.53;;;16.90;86.40;;;;;;5091189;28;20440;-67
2022/09/12 02:14:24;;;;;;;14.00;12.57;;;16.90;86.40;;;;;;5090577;28;20540;-67
2022/09/12 02:16:56;;;;;;;14.63;11.43;;;16.80;86.10;;;;;;5089610;28;20444;-67
2022/09/12 02:19:25;;;;;;;13.33;11.40;;;16.80;86.10;;;;;;5089914;28;20440;-66
2022/09/12 02:21:55;;;;;;;14.90;11.00;;;16.80;86.10;;;;;;5089775;28;20479;-66
2022/09/12 02:24:23;;;;;;;15.20;11.40;;;16.80;86.10;;;;;;5089317;28;20467;-67
2022/09/12 02:26:54;;;;;;;13.70;12.23;;;16.80;86.30;;;;;;5089222;28;20456;-67
2022/09/12 02:29:21;;;;;;;14.17;11.47;;;16.80;86.10;;;;;;5089096;28;20437;-67
2022/09/12 02:31:50;;;;;;;13.00;11.57;;;16.80;86.20;;;;;;5088413;28;20451;-67
2022/09/12 02:34:32;;;;;;;14.73;12.73;;;16.80;86.20;;;;;;5075049;28;20983;-68
2022/09/12 02:37:06;;;;;;;14.73;13.23;;;16.70;86.20;;;;;;5075163;28;20883;-68
2022/09/12 02:39:34;;;;;;;15.30;13.47;;;16.70;86.40;;;;;;5074807;28;20454;-67
2022/09/12 02:42:02;;;;;;;17.40;13.70;;;16.70;86.70;;;;;;5074618;28;20530;-67
2022/09/12 02:44:32;;;;;;;15.37;13.67;;;16.60;87.00;;;;;;5074831;28;20456;-68
2022/09/12 02:47:04;;;;;;;17.60;13.00;;;16.60;87.10;;;;;;5074500;28;20935;-67
2022/09/12 02:49:33;;;;;;;13.63;12.23;;;16.60;87.30;;;;;;5074673;28;20417;-67
2022/09/12 02:52:00;;;;;;;17.03;12.10;;;16.50;87.10;;;;;;5074778;28;20455;-67
2022/09/12 02:54:29;;;;;;;13.30;11.30;;;16.50;87.10;;;;;;5074135;28;20452;-66
2022/09/12 02:56:55;;;;;;;14.90;12.73;;;16.50;87.30;;;;;;5074568;28;20444;-68
2022/09/12 02:59:24;;;;;;;17.50;13.47;;;16.50;87.40;;;;;;5074080;28;20797;-68
2022/09/12 03:02:06;;;;;;;19.70;14.97;;;16.50;88.00;;;;;;5074593;28;20440;-68
2022/09/12 03:05:02;;;;;;;21.00;18.27;;;16.50;89.00;;;;;;5074555;28;20538;-67
2022/09/12 03:07:44;;;;;;;20.00;17.20;;;16.50;89.80;;;;;;5074206;28;20440;-67
2022/09/12 03:10:20;;;;;;;25.17;19.80;;;16.50;90.40;;;;;;5074272;28;20437;-68
2022/09/12 03:12:58;;;;;;;24.23;20.00;;;16.50;90.80;;;;;;5074101;28;20463;-68
2022/09/12 03:15:35;;;;;;;22.00;19.17;;;16.60;91.30;;;;;;5074423;28;20464;-68
2022/09/12 03:18:10;;;;;;;24.73;19.97;;;16.60;91.50;;;;;;5074102;28;20610;-67
2022/09/12 03:20:46;;;;;;;25.10;19.67;;;16.60;91.70;;;;;;5073784;28;20445;-67
2022/09/12 03:23:24;;;;;;;22.83;19.50;;;16.60;91.70;;;;;;5073559;28;20480;-67
2022/09/12 03:25:55;;;;;;;25.60;20.43;;;16.60;91.80;;;;;;5073910;28;20472;-69
2022/09/12 03:28:23;;;;;;;24.77;20.00;;;16.60;91.90;;;;;;5074099;28;20448;-68
2022/09/12 03:30:53;;;;;;;20.87;18.63;;;16.60;92.10;;;;;;5073839;28;20487;-67
2022/09/12 03:33:21;;;;;;;21.27;18.50;;;16.60;92.60;;;;;;5073851;28;20514;-67
2022/09/12 03:35:50;;;;;;;25.83;20.50;;;16.60;92.40;;;;;;5073907;28;20905;-67
2022/09/12 03:38:16;;;;;;;26.60;22.10;;;16.60;92.50;;;;;;5073677;28;20466;-67
2022/09/12 03:40:45;;;;;;;22.97;19.80;;;16.70;92.70;;;;;;5073726;28;20456;-67
2022/09/12 03:43:12;;;;;;;22.67;20.00;;;16.70;92.80;;;;;;5073788;28;20832;-67
2022/09/12 03:45:39;;;;;;;26.40;21.47;;;16.60;92.90;;;;;;5073467;28;20988;-67
2022/09/12 03:48:06;;;;;;;41.50;22.90;;;16.60;93.00;;;;;;5073700;28;20458;-66
2022/09/12 03:50:33;;;;;;;27.20;22.10;;;16.60;93.10;;;;;;5073647;28;20453;-67
2022/09/12 03:53:01;;;;;;;25.00;21.67;;;16.70;93.20;;;;;;5073904;28;20472;-68
2022/09/12 03:55:28;;;;;;;25.20;22.60;;;16.60;93.30;;;;;;5074105;28;20436;-68
2022/09/12 03:57:55;;;;;;;24.30;21.23;;;16.60;93.30;;;;;;5073186;28;20971;-66
2022/09/12 04:00:22;;;;;;;25.67;21.43;;;16.60;93.40;;;;;;5073375;28;20459;-67
2022/09/12 04:02:52;;;;;;;27.33;24.40;;;16.60;93.50;;;;;;5073208;28;21023;-68
2022/09/12 04:05:19;;;;;;;32.07;25.47;;;16.60;93.50;;;;;;5073426;28;20468;-68
2022/09/12 04:07:46;;;;;;;33.80;25.27;;;16.60;93.50;;;;;;5073045;28;20948;-68
2022/09/12 04:10:14;;;;;;;27.37;22.13;;;16.60;93.60;;;;;;5073365;28;20438;-67
2022/09/12 04:12:41;;;;;;;34.53;25.60;;;16.60;93.60;;;;;;5073221;28;20479;-67
2022/09/12 04:15:09;;;;;;;25.73;22.83;;;16.60;93.60;;;;;;5073239;28;20528;-68
2022/09/12 04:17:36;;;;;;;29.27;24.77;;;16.70;93.70;;;;;;5073142;28;20456;-68
2022/09/12 04:20:03;;;;;;;32.43;25.23;;;16.70;93.60;;;;;;5072918;28;20821;-68
2022/09/12 04:22:30;;;;;;;30.87;26.13;;;16.70;93.60;;;;;;5072728;28;20989;-68
2022/09/12 04:24:57;;;;;;;30.13;25.47;;;16.70;93.60;;;;;;5073063;28;20452;-67
2022/09/12 04:27:25;;;;;;;28.97;24.63;;;16.70;93.60;;;;;;5085894;28;20456;-65
2022/09/12 04:29:53;;;;;;;28.80;24.50;;;16.70;93.50;;;;;;5083811;28;20448;-65
2022/09/12 04:32:21;;;;;;;27.10;23.77;;;16.70;93.50;;;;;;5086871;28;20462;-65
2022/09/12 04:34:47;;;;;;;28.43;25.40;;;16.80;93.40;;;;;;5087794;28;20447;-66
2022/09/12 04:37:15;;;;;;;31.33;24.97;;;16.70;93.30;;;;;;5090241;28;20432;-66
2022/09/12 04:39:42;;;;;;;29.57;24.77;;;16.80;93.30;;;;;;5092222;28;20456;-65
2022/09/12 04:42:09;;;;;;;29.93;24.13;;;16.70;93.10;;;;;;5084842;28;20463;-67
2022/09/12 04:44:37;;;;;;;34.27;27.07;;;16.70;93.10;;;;;;5083075;28;20960;-66
2022/09/12 04:47:04;;;;;;;30.90;25.10;;;16.70;93.20;;;;;;5083901;28;20472;-66
2022/09/12 04:49:30;;;;;;;31.50;25.03;;;16.70;93.30;;;;;;5086217;28;20451;-66
2022/09/12 04:51:57;;;;;;;32.10;23.70;;;16.70;93.30;;;;;;5086039;28;20460;-66
2022/09/12 04:54:24;;;;;;;29.83;25.77;;;16.70;93.20;;;;;;5085403;28;20503;-66
2022/09/12 04:56:53;;;;;;;31.87;26.63;;;16.80;93.20;;;;;;5087259;28;20447;-66
2022/09/12 04:59:21;;;;;;;32.20;26.60;;;16.80;93.10;;;;;;5087602;28;20444;-66
2022/09/12 05:01:50;;;;;;;27.77;24.10;;;16.80;93.00;;;;;;5087398;28;20448;-66
2022/09/12 05:04:17;;;;;;;28.83;23.57;;;16.80;92.80;;;;;;5087410;28;20492;-66
2022/09/12 05:06:46;;;;;;;31.17;23.27;;;16.70;92.70;;;;;;5086592;28;20488;-66
2022/09/12 05:09:14;;;;;;;28.03;23.90;;;16.70;92.80;;;;;;5087296;28;20505;-68
2022/09/12 05:11:43;;;;;;;31.70;24.83;;;16.70;92.80;;;;;;5087663;28;20547;-67
2022/09/12 05:14:11;;;;;;;26.37;22.77;;;16.70;92.70;;;;;;5087352;28;20464;-66
2022/09/12 05:16:38;;;;;;;28.50;22.90;;;16.70;92.70;;;;;;5087110;28;20454;-66
2022/09/12 05:19:06;;;;;;;25.80;21.93;;;16.70;92.70;;;;;;5087523;28;20455;-68
2022/09/12 05:21:33;;;;;;;24.20;20.73;;;16.70;92.70;;;;;;5089498;28;20440;-68
2022/09/12 05:23:59;;;;;;;24.03;21.10;;;16.70;92.70;;;;;;5089867;28;20479;-66
2022/09/12 05:26:27;;;;;;;28.87;21.70;;;16.70;92.70;;;;;;5089371;28;20519;-66
2022/09/12 05:28:54;;;;;;;29.50;20.50;;;16.70;92.80;;;;;;5089796;28;20647;-66
2022/09/12 05:31:22;;;;;;;26.37;20.80;;;16.70;92.90;;;;;;5089558;28;20963;-66
2022/09/12 05:33:50;;;;;;;28.17;21.27;;;16.70;93.00;;;;;;5089168;28;20465;-66
2022/09/12 05:36:20;;;;;;;28.03;20.30;;;16.80;93.20;;;;;;5089082;28;20455;-68
2022/09/12 05:38:47;;;;;;;23.37;19.37;;;16.80;93.20;;;;;;5089344;28;20459;-68
2022/09/12 05:41:15;;;;;;;26.03;20.60;;;16.80;93.20;;;;;;5090173;28;20456;-68
2022/09/12 05:43:44;;;;;;;24.30;19.53;;;16.80;93.20;;;;;;5089634;28;20533;-67
2022/09/12 05:46:12;;;;;;;24.70;19.43;;;16.90;93.30;;;;;;5089964;28;20484;-67
2022/09/12 05:48:42;;;;;;;30.60;21.20;;;16.90;93.40;;;;;;5089989;28;20495;-67
2022/09/12 05:51:11;;;;;;;24.00;20.50;;;16.90;93.50;;;;;;5089685;28;20455;-67
2022/09/12 05:53:41;;;;;;;22.87;18.77;;;16.90;93.60;;;;;;5089316;28;20475;-67
2022/09/12 05:56:10;;;;;;;23.43;18.50;;;17.00;93.70;;;;;;5088609;28;20979;-67
2022/09/12 05:58:38;;;;;;;27.63;21.57;;;17.00;94.10;;;;;;5089034;28;20453;-67
2022/09/12 06:01:07;;;;;;;30.47;22.27;;;17.10;93.90;;;;;;5089806;28;20952;-67
2022/09/12 06:03:34;;;;;;;27.70;21.17;;;17.10;94.00;;;;;;5089661;28;20467;-67
2022/09/12 06:06:03;;;;;;;28.10;22.03;;;17.20;94.00;;;;;;5089686;28;20511;-67
2022/09/12 06:08:31;;;;;;;30.43;22.70;;;17.20;94.10;;;;;;5090494;28;20444;-67
2022/09/12 06:11:04;;;;;;;33.10;23.90;;;17.20;94.10;;;;;;5091060;28;20442;-67
2022/09/12 06:13:32;;;;;;;24.50;21.50;;;17.30;94.20;;;;;;5089636;28;20460;-68
2022/09/12 06:16:07;;;;;;;27.17;19.10;;;17.30;94.20;;;;;;5090738;28;20452;-68
2022/09/12 06:18:34;;;;;;;28.80;21.40;;;17.40;94.30;;;;;;5089532;28;20491;-67
2022/09/12 06:21:03;;;;;;;26.90;20.80;;;17.40;94.20;;;;;;5090740;28;20460;-67
2022/09/12 06:23:29;;;;;;;24.17;19.57;;;17.50;94.30;;;;;;5091102;28;20999;-67
2022/09/12 06:25:56;;;;;;;24.57;20.10;;;17.60;94.40;;;;;;5090892;28;20487;-67
2022/09/12 06:28:24;;;;;;;26.30;21.87;;;17.60;94.30;;;;;;5090451;28;20445;-67
2022/09/12 06:30:52;;;;;;;30.57;21.07;;;17.70;94.30;;;;;;5091147;28;20463;-67
2022/09/12 06:33:19;;;;;;;30.53;20.20;;;17.80;94.40;;;;;;5090332;28;20472;-68
2022/09/12 06:35:45;;;;;;;24.80;20.73;;;17.80;94.30;;;;;;5090569;28;20452;-68
2022/09/12 06:38:12;;;;;;;34.40;20.17;;;17.90;94.10;;;;;;5090213;28;20445;-67
2022/09/12 06:40:43;;;;;;;23.80;18.67;;;17.90;94.10;;;;;;5090554;28;20475;-68
2022/09/12 06:43:12;;;;;;;20.73;18.47;;;18.00;94.20;;;;;;5090673;28;20480;-68
2022/09/12 06:45:48;;;;;;;20.00;17.13;;;18.00;94.20;;;;;;5090487;28;20471;-67
2022/09/12 06:48:15;;;;;;;21.70;19.43;;;18.10;94.20;;;;;;5089586;28;20436;-67
2022/09/12 06:50:42;;;;;;;28.37;18.90;;;18.10;94.10;;;;;;5090654;28;20453;-67
2022/09/12 06:53:09;;;;;;;18.83;16.27;;;18.20;94.10;;;;;;5089825;28;20476;-69
2022/09/12 06:55:35;;;;;;;20.33;17.90;;;18.30;94.00;;;;;;5091849;28;20460;-67
2022/09/12 06:58:02;;;;;;;18.80;16.80;;;18.30;93.90;;;;;;5091106;28;20437;-67
2022/09/12 07:00:29;;;;;;;23.43;19.43;;;18.40;94.00;;;;;;5090046;28;20433;-67
2022/09/12 07:02:57;;;;;;;22.43;18.53;;;18.50;94.00;;;;;;5090072;28;20522;-67
2022/09/12 07:05:23;;;;;;;22.10;18.17;;;18.60;93.90;;;;;;5091397;28;20444;-67
2022/09/12 07:07:50;;;;;;;19.17;16.27;;;18.60;93.80;;;;;;5090397;28;20507;-67
2022/09/12 07:10:17;;;;;;;22.50;20.10;;;18.70;93.60;;;;;;5090039;28;20456;-68
2022/09/12 07:12:43;;;;;;;18.37;16.47;;;18.90;93.40;;;;;;5090586;28;20473;-68
2022/09/12 07:15:11;;;;;;;23.53;18.57;;;18.90;93.20;;;;;;5089860;28;20445;-68
2022/09/12 07:17:37;;;;;;;23.80;18.97;;;19.10;92.90;;;;;;5089975;28;20452;-68
2022/09/12 07:20:07;;;;;;;23.27;19.70;;;19.10;92.30;;;;;;5090718;28;20453;-69
2022/09/12 07:22:34;;;;;;;22.33;19.00;;;19.10;91.90;;;;;;5088216;28;20469;-69
2022/09/12 07:25:00;;;;;;;20.43;18.13;;;19.20;91.80;;;;;;5088357;28;20466;-69
2022/09/12 07:27:27;;;;;;;20.23;16.67;;;19.30;91.70;;;;;;5087525;28;20481;-67
2022/09/12 07:29:54;;;;;;;22.80;19.20;;;19.40;91.60;;;;;;5087978;28;20445;-67
2022/09/12 07:32:22;;;;;;;22.87;18.53;;;19.50;91.20;;;;;;5088582;28;20519;-68
2022/09/12 07:34:49;;;;;;;23.43;17.23;;;19.60;91.00;;;;;;5088164;28;20450;-68
2022/09/12 07:37:17;;;;;;;19.23;16.97;;;19.70;90.80;;;;;;5088633;28;20437;-68
2022/09/12 07:39:44;;;;;;;18.60;16.73;;;19.80;90.50;;;;;;5088610;28;20451;-68
2022/09/12 07:42:11;;;;;;;17.70;15.80;;;20.00;90.20;;;;;;5088245;28;20452;-68
2022/09/12 07:44:38;;;;;;;17.87;16.00;;;20.10;90.00;;;;;;5089032;28;20449;-68
2022/09/12 07:47:05;;;;;;;20.93;16.30;;;20.20;88.80;;;;;;5070038;28;20476;-68
2022/09/12 07:49:31;;;;;;;23.20;17.73;;;20.30;88.70;;;;;;5087986;28;20456;-68
2022/09/12 07:51:58;;;;;;;22.63;18.30;;;20.50;88.20;;;;;;5087044;28;20437;-68
2022/09/12 07:54:26;;;;;;;21.33;19.00;;;20.50;88.00;;;;;;5087602;28;20484;-67
2022/09/12 07:56:53;;;;;;;18.67;15.90;;;20.60;87.30;;;;;;5087657;28;20457;-67
2022/09/12 07:59:20;;;;;;;18.90;15.10;;;20.70;86.90;;;;;;5087994;28;20448;-68
2022/09/12 08:01:46;;;;;;;24.53;17.30;;;20.80;86.00;;;;;;5088582;28;20455;-68
2022/09/12 08:04:13;;;;;;;23.43;15.80;;;20.80;85.50;;;;;;5088308;28;20823;-68
2022/09/12 08:06:40;;;;;;;23.03;15.13;;;20.80;85.00;;;;;;5087355;28;20500;-67
2022/09/12 08:09:07;;;;;;;22.93;15.77;;;20.90;84.40;;;;;;5087763;28;20457;-68
2022/09/12 08:11:35;;;;;;;25.80;20.43;;;20.90;84.20;;;;;;5091967;28;20452;-69
2022/09/12 08:14:04;;;;;;;22.10;18.57;;;20.90;84.30;;;;;;5091321;28;20472;-69
2022/09/12 08:16:33;;;;;;;18.80;16.40;;;21.00;84.30;;;;;;5085793;28;20445;-68
2022/09/12 08:19:01;;;;;;;17.63;15.80;;;21.00;84.10;;;;;;5086609;28;20448;-69
2022/09/12 08:21:29;;;;;;;22.40;18.03;;;21.10;84.10;;;;;;5086183;28;20457;-69
2022/09/12 08:23:59;;;;;;;22.00;16.87;;;21.10;84.00;;;;;;5086529;28;20468;-68
2022/09/12 08:26:26;;;;;;;18.87;16.50;;;21.30;83.70;;;;;;5086438;28;20504;-68
2022/09/12 08:28:55;;;;;;;20.40;14.90;;;21.40;83.00;;;;;;5087398;28;20455;-68
2022/09/12 08:31:24;;;;;;;18.33;16.00;;;21.60;82.80;;;;;;5087250;28;20809;-68
2022/09/12 08:33:51;;;;;;;15.50;13.90;;;21.70;81.20;;;;;;5087470;28;20461;-69
2022/09/12 08:36:21;;;;;;;20.30;14.47;;;21.90;80.60;;;;;;5088727;28;20456;-69
2022/09/12 08:38:49;;;;;;;16.70;13.93;;;22.10;79.90;;;;;;5089119;28;20461;-68
2022/09/12 08:41:26;;;;;;;18.37;14.30;;;22.30;79.60;;;;;;5080255;28;20441;-69
2022/09/12 08:44:20;;;;;;;16.07;14.40;;;22.50;79.00;;;;;;5076225;28;20985;-70
2022/09/12 08:46:58;;;;;;;15.90;13.90;;;22.70;78.60;;;;;;5076680;28;20472;-70
2022/09/12 08:49:28;;;;;;;15.33;13.67;;;22.90;76.80;;;;;;5077742;28;20441;-70
2022/09/12 08:51:57;;;;;;;16.40;13.90;;;23.10;76.80;;;;;;5078172;28;20426;-71
2022/09/12 08:54:27;;;;;;;14.20;12.60;;;23.40;75.70;;;;;;5077555;28;20477;-71
2022/09/12 08:57:00;;;;;;;14.43;12.47;;;23.60;73.80;;;;;;5078452;28;20490;-70
2022/09/12 08:59:37;;;;;;;13.93;12.63;;;23.80;73.20;;;;;;5078800;28;20433;-70
2022/09/12 09:02:15;;;;;;;13.80;11.93;;;24.00;72.40;;;;;;5078399;28;20811;-70
2022/09/12 09:04:50;;;;;;;12.87;11.47;;;24.30;71.20;;;;;;5078849;28;20936;-70
2022/09/12 09:07:40;;;;;;;12.83;11.53;;;24.50;69.70;;;;;;5077444;28;21055;-70
2022/09/12 09:10:24;;;;;;;11.50;10.40;;;24.70;68.90;;;;;;5077425;28;20433;-70
2022/09/12 09:12:59;;;;;;;13.03;11.63;;;25.00;67.60;;;;;;5076089;28;20469;-71
2022/09/12 09:15:39;;;;;;;12.20;11.03;;;25.20;66.50;;;;;;5073781;28;20436;-71
2022/09/12 09:18:12;;;;;;;13.43;11.97;;;25.40;65.30;;;;;;5076412;28;20433;-71
2022/09/12 09:20:44;;;;;;;12.23;11.13;;;25.60;64.50;;;;;;5079010;28;20440;-70
2022/09/12 09:23:16;;;;;;;16.23;12.13;;;25.80;63.60;;;;;;5079081;28;20518;-70
2022/09/12 09:25:50;;;;;;;13.20;11.93;;;26.00;63.90;;;;;;5079833;28;20437;-70
2022/09/12 09:28:22;;;;;;;14.33;11.80;;;26.30;61.00;;;;;;5081647;28;20476;-70
2022/09/12 09:30:50;;;;;;;13.53;12.13;;;26.50;60.60;;;;;;5081787;28;20447;-70
2022/09/12 09:33:22;;;;;;;13.97;11.87;;;26.80;60.30;;;;;;5081464;28;20575;-72
2022/09/12 09:35:56;;;;;;;13.10;11.60;;;27.00;59.20;;;;;;5082278;28;20425;-71
2022/09/12 09:38:30;;;;;;;12.87;11.53;;;27.30;58.40;;;;;;5082853;28;20430;-71
2022/09/12 09:41:20;;;;;;;12.10;10.97;;;27.50;57.70;;;;;;5082877;28;20440;-71
2022/09/12 09:43:47;;;;;;;10.47;9.00;;;27.80;57.00;;;;;;5083010;28;20476;-71
2022/09/12 09:46:15;;;;;;;17.43;11.10;;;28.00;53.80;;;;;;5081850;28;20457;-70
2022/09/12 09:48:45;;;;;;;12.67;11.47;;;28.10;53.60;;;;;;5081412;28;20480;-72
2022/09/12 09:51:16;;;;;;;11.43;10.33;;;28.20;53.80;;;;;;5081186;28;20429;-72
2022/09/12 09:53:48;;;;;;;12.40;9.93;;;28.50;52.90;;;;;;5080660;28;20487;-71
2022/09/12 09:56:26;;;;;;;10.67;9.30;;;28.60;51.10;;;;;;5081046;28;20437;-71
2022/09/12 09:58:53;;;;;;;8.87;8.07;;;28.80;50.30;;;;;;5080361;28;20440;-71
2022/09/12 10:01:22;;;;;;;8.57;7.80;;;29.10;51.10;;;;;;5081230;28;20441;-71
2022/09/12 10:03:51;;;;;;;8.53;7.80;;;29.40;48.90;;;;;;5081363;28;20457;-72
2022/09/12 10:06:29;;;;;;;6.77;5.93;;;29.60;47.90;;;;;;5080492;28;20448;-72
2022/09/12 10:09:07;;;;;;;8.87;6.63;;;30.00;46.40;;;;;;5079494;28;20973;-71
2022/09/12 10:11:35;;;;;;;5.87;5.00;;;30.30;44.60;;;;;;5080087;28;20443;-70
2022/09/12 10:14:03;;;;;;;8.40;7.70;;;30.50;44.00;;;;;;5078833;28;20469;-70
2022/09/12 10:16:33;;;;;;;7.33;6.60;;;30.70;42.30;;;;;;5080081;28;20524;-70
2022/09/12 10:19:01;;;;;;;7.23;6.53;;;30.70;41.90;;;;;;5078656;28;20453;-69
2022/09/12 10:21:32;;;;;;;6.40;5.83;;;30.90;41.50;;;;;;5077645;28;20448;-70
2022/09/12 10:24:03;;;;;;;9.80;5.13;;;31.30;41.00;;;;;;5078302;28;20472;-70
2022/09/12 10:26:35;;;;;;;5.40;4.90;;;31.70;39.50;;;;;;5078665;28;20756;-69
2022/09/12 10:29:14;;;;;;;5.33;4.87;;;32.00;38.50;;;;;;5077164;28;21055;-69
2022/09/12 10:31:52;;;;;;;5.57;5.10;;;32.50;38.70;;;;;;5076630;28;20444;-70
2022/09/12 10:34:24;;;;;;;5.57;5.17;;;32.90;36.10;;;;;;5077842;28;20475;-70
2022/09/12 10:36:54;;;;;;;5.80;5.30;;;33.40;35.30;;;;;;5076628;28;20494;-71
2022/09/12 10:39:21;;;;;;;4.83;4.43;;;33.90;35.30;;;;;;5077536;28;20470;-70
2022/09/12 10:41:48;;;;;;;5.87;5.47;;;34.50;35.60;;;;;;5077611;28;20494;-71
2022/09/12 10:44:17;;;;;;;7.40;6.80;;;34.90;32.00;;;;;;5077019;28;20464;-70
2022/09/12 10:46:44;;;;;;;5.80;5.30;;;35.30;32.00;;;;;;5082085;28;20945;-69
2022/09/12 10:49:22;;;;;;;4.10;3.70;;;35.70;31.30;;;;;;5076086;28;20448;-70
2022/09/12 10:51:49;;;;;;;3.40;3.13;;;36.20;30.20;;;;;;5075334;28;20432;-70
2022/09/12 10:54:19;;;;;;;2.83;2.60;;;36.70;28.40;;;;;;5075967;28;20499;-70
2022/09/12 10:57:03;;;;;;;4.10;3.17;;;36.90;27.20;;;;;;5077628;28;20206;-69
2022/09/12 10:59:40;;;;;;;2.80;2.60;;;37.30;27.10;;;;;;5078049;28;20197;-70
2022/09/12 11:02:14;;;;;;;3.10;2.80;;;37.60;27.10;;;;;;5076781;28;20190;-70
2022/09/12 11:04:52;;;;;;;3.50;3.20;;;38.10;26.80;;;;;;5077155;28;20193;-70
2022/09/12 11:07:32;;;;;;;2.97;2.78;;;38.40;25.20;;;;;;5077888;28;20213;-70
2022/09/12 11:10:06;;;;;;;3.10;2.80;;;38.70;25.50;;;;;;5078133;28;20190;-69
2022/09/12 11:12:41;;;;;;;4.72;3.08;;;39.00;25.10;;;;;;5078165;28;20222;-70
2022/09/12 11:15:24;;;;;;;2.85;2.65;;;39.20;24.20;;;;;;5078580;28;20197;-70
2022/09/12 11:17:56;;;;;;;3.00;2.65;;;39.40;23.70;;;;;;5077881;28;20186;-70
2022/09/12 11:20:43;;;;;;;4.07;1.85;;;39.50;23.20;;;;;;5081237;28;20175;-71
2022/09/12 11:23:31;;;;;;;1.80;1.70;;;39.50;22.30;;;;;;5094223;28;20205;-71
2022/09/12 11:26:03;;;;;;;2.72;2.28;;;39.20;22.60;;;;;;5089814;28;20194;-71
2022/09/12 11:28:38;;;;;;;2.72;2.28;;;39.10;22.80;;;;;;5089140;28;20221;-69
2022/09/12 11:31:23;;;;;;;2.40;2.20;;;39.20;23.20;;;;;;5091917;28;20190;-70
2022/09/12 11:33:51;;;;;;;5.88;1.80;;;39.50;23.00;;;;;;5091899;28;20233;-70
2022/09/12 11:36:29;;;;;;;2.22;1.80;;;39.80;22.40;;;;;;5091766;28;20206;-71
2022/09/12 11:39:03;;;;;;;2.88;2.67;;;40.00;22.50;;;;;;5095325;28;20217;-70
2022/09/12 11:41:33;;;;;;;3.00;2.70;;;40.10;21.90;;;;;;5094296;28;20186;-71
2022/09/12 11:44:09;;;;;;;2.45;1.88;;;40.50;22.40;;;;;;5093331;28;20202;-71
2022/09/12 11:46:38;;;;;;;2.13;2.03;;;40.90;21.40;;;;;;5094085;28;20174;-70
2022/09/12 11:49:15;;;;;;;4.65;2.33;;;41.40;21.70;;;;;;5093931;28;20226;-72
2022/09/12 11:51:50;;;;;;;2.03;1.83;;;41.70;20.20;;;;;;5091359;28;20196;-71
2022/09/12 11:54:24;;;;;;;3.05;2.20;;;41.80;20.90;;;;;;5087758;28;20235;-71
2022/09/12 11:56:58;;;;;;;2.38;2.05;;;41.90;20.20;;;;;;5080577;28;20189;-70
2022/09/12 11:59:33;;;;;;;2.60;2.40;;;41.70;20.40;;;;;;5074876;28;20256;-70
2022/09/12 12:02:03;;;;;;;2.67;2.13;;;42.00;21.50;;;;;;5074884;28;20186;-70
2022/09/12 12:04:38;;;;;;;2.88;2.58;;;42.20;19.90;;;;;;5074624;28;20297;-70
2022/09/12 12:07:10;;;;;;;2.33;2.10;;;42.40;19.60;;;;;;5074549;28;20190;-71
2022/09/12 12:09:44;;;;;;;2.72;2.25;;;42.50;20.50;;;;;;5074167;28;20218;-70
2022/09/12 12:12:17;;;;;;;2.50;2.30;;;42.80;19.90;;;;;;5073460;28;20190;-71
2022/09/12 12:14:47;;;;;;;4.03;2.25;;;42.90;19.20;;;;;;5073527;28;20666;-71
2022/09/12 12:17:15;;;;;;;3.20;2.90;;;43.00;19.40;;;;;;5073181;28;20212;-70
2022/09/12 12:19:42;;;;;;;2.17;2.05;;;43.10;19.40;;;;;;5073010;28;20691;-71
2022/09/12 12:22:17;;;;;;;2.28;2.08;;;43.20;20.00;;;;;;5073007;28;20713;-71
2022/09/12 12:25:05;;;;;;;3.40;2.90;;;43.60;20.30;;;;;;5073380;28;20186;-71
2022/09/12 12:27:50;;;;;;;2.63;2.10;;;44.20;19.90;;;;;;5073301;28;20190;-71
2022/09/12 12:31:10;;;;;;;1.88;1.77;;;44.60;18.60;;;;;;5073284;28;20205;-71
2022/09/12 12:33:55;;;;;;;2.22;1.80;;;45.00;17.80;;;;;;5072896;28;20225;-71
2022/09/12 12:36:43;;;;;;;3.15;2.30;;;45.30;17.90;;;;;;5073104;28;20226;-72
2022/09/12 12:39:44;;;;;;;3.92;2.67;;;45.30;17.40;;;;;;5066755;28;20252;-72
2022/09/12 12:42:56;;;;;;;2.30;2.10;;;45.40;18.30;;;;;;5073552;28;20186;-71
2022/09/12 12:46:00;;;;;;;2.33;2.13;;;45.80;17.40;;;;;;5053194;28;20197;-71
2022/09/12 12:48:31;;;;;;;2.30;2.20;;;46.20;17.80;;;;;;5073154;28;20259;-71
2022/09/12 12:51:31;;;;;;;2.78;2.38;;;46.60;18.10;;;;;;5073394;28;20187;-71
2022/09/12 12:54:00;;;;;;;2.63;2.42;;;47.10;16.90;;;;;;5072765;28;20233;-71